Time;durP1;ratioP1;P1;durP2;ratioP2;P2;SDS_P1;SDS_P2;PMS_P1;PMS_P2;Temp;Humidity;BMP_temperature;BMP_pressure;BME280_temperature;BME280_humidity;BME280_pressure;Samples;Min_cycle;Max_cycle;Signal;HPM_P1;HPM_P2
2022/03/03 00:02:30;;;;;;;18.27;12.73;;;1.70;99.90;;;;;;10385139;28;20224;-77
2022/03/03 00:07:31;;;;;;;19.20;12.33;;;1.70;99.90;;;;;;10386828;28;20308;-76
2022/03/03 00:12:32;;;;;;;21.27;13.33;;;1.70;99.90;;;;;;10399042;28;20303;-77
2022/03/03 00:17:32;;;;;;;18.97;13.27;;;1.80;99.90;;;;;;10384998;28;20239;-76
2022/03/03 00:22:33;;;;;;;20.07;13.23;;;1.90;99.90;;;;;;10385245;28;20213;-75
2022/03/03 00:27:34;;;;;;;19.63;11.90;;;1.90;99.90;;;;;;10391244;28;20223;-76
2022/03/03 00:32:40;;;;;;;21.30;13.63;;;1.80;99.90;;;;;;10397805;28;20592;-75
2022/03/03 00:37:40;;;;;;;16.70;12.27;;;1.80;99.90;;;;;;10390114;28;20303;-77
2022/03/03 00:42:41;;;;;;;19.93;12.60;;;1.80;99.90;;;;;;10405944;28;20700;-76
2022/03/03 00:47:42;;;;;;;18.80;13.23;;;1.70;99.90;;;;;;10392123;28;20224;-77
2022/03/03 00:52:43;;;;;;;19.87;13.40;;;1.70;99.90;;;;;;10392634;28;20224;-75
2022/03/03 00:57:46;;;;;;;16.40;12.80;;;1.70;99.90;;;;;;10391188;28;20231;-75
2022/03/03 01:02:51;;;;;;;20.57;13.13;;;1.70;99.90;;;;;;10399055;28;20212;-75
2022/03/03 01:07:51;;;;;;;20.83;14.33;;;1.70;99.90;;;;;;10394885;28;20252;-76
2022/03/03 01:12:58;;;;;;;22.47;13.40;;;1.70;99.90;;;;;;10403888;28;20216;-75
2022/03/03 01:17:59;;;;;;;18.53;13.00;;;1.70;99.90;;;;;;10393496;28;20256;-75
2022/03/03 01:23:00;;;;;;;20.37;13.60;;;1.70;99.90;;;;;;10402025;28;20626;-76
2022/03/03 01:28:04;;;;;;;20.20;13.87;;;1.60;99.90;;;;;;10397922;28;20704;-76
2022/03/03 01:33:06;;;;;;;21.73;13.73;;;1.60;99.90;;;;;;10392113;28;20644;-75
2022/03/03 01:38:08;;;;;;;20.03;13.73;;;1.70;99.90;;;;;;10394562;28;20342;-75
2022/03/03 01:43:08;;;;;;;21.23;14.20;;;1.70;99.90;;;;;;10396884;28;20762;-76
2022/03/03 01:48:12;;;;;;;20.47;13.83;;;1.70;99.90;;;;;;10403315;28;20225;-75
2022/03/03 01:53:13;;;;;;;22.43;14.27;;;1.70;99.90;;;;;;10387577;28;20300;-76
2022/03/03 01:58:14;;;;;;;21.10;14.00;;;1.70;99.90;;;;;;10389492;28;20772;-75
2022/03/03 02:03:16;;;;;;;22.53;13.97;;;1.60;99.90;;;;;;10388077;28;20224;-75
2022/03/03 02:08:16;;;;;;;19.47;13.57;;;1.60;99.90;;;;;;10386174;28;20720;-76
2022/03/03 02:13:17;;;;;;;19.87;13.83;;;1.60;99.90;;;;;;10377769;28;20225;-75
2022/03/03 02:18:18;;;;;;;19.13;12.63;;;1.60;99.90;;;;;;10395273;28;20290;-75
2022/03/03 02:23:19;;;;;;;19.97;13.93;;;1.50;99.90;;;;;;10396271;28;20232;-77
2022/03/03 02:28:20;;;;;;;20.63;13.20;;;1.50;99.90;;;;;;10389347;28;20755;-77
2022/03/03 02:33:20;;;;;;;18.27;13.27;;;1.40;99.90;;;;;;10408525;28;20283;-77
2022/03/03 02:38:21;;;;;;;20.40;13.47;;;1.40;99.90;;;;;;10394505;28;20232;-75
2022/03/03 02:43:22;;;;;;;19.90;14.13;;;1.30;99.90;;;;;;10393978;28;20208;-75
2022/03/03 02:48:22;;;;;;;24.23;13.83;;;1.10;99.90;;;;;;10394031;28;20298;-76
2022/03/03 02:53:24;;;;;;;20.97;13.80;;;1.10;99.90;;;;;;10393902;28;20259;-75
2022/03/03 02:58:25;;;;;;;21.97;15.33;;;1.10;99.90;;;;;;10393372;28;20233;-75
2022/03/03 03:03:26;;;;;;;25.33;15.10;;;1.00;99.90;;;;;;10400108;28;20215;-76
2022/03/03 03:08:27;;;;;;;23.77;15.20;;;0.90;99.90;;;;;;10393276;28;20220;-75
2022/03/03 03:13:29;;;;;;;22.30;14.77;;;0.80;99.90;;;;;;10384615;28;20236;-75
2022/03/03 03:18:30;;;;;;;21.83;14.27;;;0.70;99.90;;;;;;10393034;28;20225;-75
2022/03/03 03:23:30;;;;;;;22.70;14.43;;;0.70;99.90;;;;;;10391081;28;20765;-76
2022/03/03 03:28:31;;;;;;;20.40;14.17;;;0.80;99.90;;;;;;10394232;28;20268;-77
2022/03/03 03:33:32;;;;;;;22.53;14.60;;;0.80;99.90;;;;;;10377306;28;20367;-76
2022/03/03 03:38:33;;;;;;;18.40;12.87;;;0.90;99.90;;;;;;10389379;28;20251;-75
2022/03/03 03:43:33;;;;;;;20.53;13.33;;;0.90;99.90;;;;;;10385363;28;20224;-74
2022/03/03 03:48:34;;;;;;;20.50;14.07;;;0.80;99.90;;;;;;10395254;28;20283;-75
2022/03/03 03:53:35;;;;;;;18.70;12.77;;;0.80;99.90;;;;;;10393310;28;20226;-74
2022/03/03 03:58:35;;;;;;;23.87;13.83;;;0.80;99.90;;;;;;10389242;28;20254;-75
2022/03/03 04:03:36;;;;;;;18.87;13.00;;;0.70;99.90;;;;;;10386386;28;20365;-74
2022/03/03 04:08:37;;;;;;;19.37;12.77;;;0.60;99.90;;;;;;10401558;28;20263;-74
2022/03/03 04:13:38;;;;;;;24.27;13.97;;;0.60;99.90;;;;;;10397701;28;20232;-75
2022/03/03 04:18:38;;;;;;;20.23;14.23;;;0.50;99.90;;;;;;10392088;28;20233;-75
2022/03/03 04:23:39;;;;;;;21.87;14.33;;;0.40;99.90;;;;;;10398776;28;20224;-75
2022/03/03 04:28:40;;;;;;;18.67;13.77;;;0.50;99.90;;;;;;10396946;28;20220;-75
2022/03/03 04:33:42;;;;;;;22.83;13.93;;;0.60;99.90;;;;;;10393115;28;20224;-75
2022/03/03 04:38:45;;;;;;;21.43;13.30;;;0.70;99.90;;;;;;10397280;28;20232;-75
2022/03/03 04:43:46;;;;;;;20.63;13.57;;;0.80;99.90;;;;;;10393839;28;20374;-75
2022/03/03 04:48:47;;;;;;;19.33;13.07;;;0.90;99.90;;;;;;10403481;28;20304;-75
2022/03/03 04:53:47;;;;;;;19.97;12.80;;;0.90;99.90;;;;;;10394756;28;20647;-76
2022/03/03 04:58:49;;;;;;;18.53;12.73;;;0.90;99.90;;;;;;10395594;28;20283;-75
2022/03/03 05:03:50;;;;;;;19.23;13.57;;;0.80;99.90;;;;;;10394462;28;20282;-75
2022/03/03 05:08:51;;;;;;;24.60;15.30;;;0.70;99.90;;;;;;10402206;28;20312;-75
2022/03/03 05:13:52;;;;;;;19.00;13.10;;;0.60;99.90;;;;;;10401509;28;20307;-75
2022/03/03 05:18:53;;;;;;;19.17;12.87;;;0.50;99.90;;;;;;10394036;28;20233;-76
2022/03/03 05:23:53;;;;;;;28.07;13.73;;;0.30;99.90;;;;;;10399024;28;20217;-75
2022/03/03 05:28:54;;;;;;;21.23;14.37;;;0.10;99.90;;;;;;10397812;28;20247;-76
2022/03/03 05:33:55;;;;;;;21.20;13.47;;;0.00;99.90;;;;;;10410561;28;20689;-76
2022/03/03 05:38:57;;;;;;;20.30;13.70;;;-0.10;99.90;;;;;;10394430;28;20236;-76
2022/03/03 05:43:59;;;;;;;20.77;13.73;;;-0.20;99.90;;;;;;10383866;28;20221;-76
2022/03/03 05:48:59;;;;;;;20.33;12.87;;;-0.30;99.90;;;;;;10391943;28;20220;-75
2022/03/03 05:54:00;;;;;;;22.03;14.90;;;-0.20;99.90;;;;;;10406800;28;20227;-76
2022/03/03 05:59:06;;;;;;;22.83;14.00;;;-0.30;99.90;;;;;;10390576;28;20304;-76
2022/03/03 06:04:14;;;;;;;20.53;14.57;;;-0.20;99.90;;;;;;10392913;28;20308;-71
2022/03/03 06:09:18;;;;;;;23.97;14.33;;;-0.20;99.90;;;;;;10386435;28;20216;-72
2022/03/03 06:14:28;;;;;;;25.50;16.07;;;-0.10;99.90;;;;;;10392905;28;20244;-74
2022/03/03 06:19:29;;;;;;;29.47;14.47;;;0.00;99.90;;;;;;10394960;28;20659;-73
2022/03/03 06:24:31;;;;;;;28.27;14.97;;;0.10;99.90;;;;;;10394599;28;20228;-76
2022/03/03 06:29:33;;;;;;;25.43;15.47;;;0.20;99.90;;;;;;10385368;28;20307;-77
2022/03/03 06:34:33;;;;;;;23.80;14.43;;;0.20;99.90;;;;;;10386118;28;20228;-75
2022/03/03 06:39:34;;;;;;;25.63;15.80;;;0.20;99.90;;;;;;10392381;28;20228;-74
2022/03/03 06:44:35;;;;;;;25.60;15.80;;;0.30;99.90;;;;;;10388133;28;20217;-76
2022/03/03 06:49:36;;;;;;;29.37;17.00;;;0.50;99.90;;;;;;10392381;28;20228;-75
2022/03/03 06:54:38;;;;;;;25.77;16.00;;;0.60;99.90;;;;;;10393004;28;20229;-74
2022/03/03 06:59:39;;;;;;;25.60;14.90;;;0.80;99.90;;;;;;10391001;28;20228;-75
2022/03/03 07:04:40;;;;;;;24.37;14.37;;;0.90;99.90;;;;;;10400838;28;20641;-75
2022/03/03 07:09:41;;;;;;;20.13;13.73;;;1.00;99.90;;;;;;10383421;28;20224;-74
2022/03/03 07:14:42;;;;;;;22.93;13.70;;;1.10;99.90;;;;;;10390002;28;20224;-75
2022/03/03 07:20:10;;;;;;;21.60;14.63;;;1.40;99.90;;;;;;10398817;28;20231;-74
2022/03/03 07:25:14;;;;;;;20.90;13.70;;;1.90;99.90;;;;;;10382223;28;20263;-75
2022/03/03 07:30:16;;;;;;;22.37;14.27;;;2.30;99.90;;;;;;10391371;28;20220;-74
2022/03/03 07:35:17;;;;;;;23.03;13.97;;;3.40;99.90;;;;;;10384354;28;20568;-74
2022/03/03 07:40:19;;;;;;;19.60;13.77;;;5.80;99.90;;;;;;10398964;28;20298;-74
2022/03/03 07:45:23;;;;;;;15.63;12.27;;;7.90;94.90;;;;;;10396313;28;20204;-74
2022/03/03 07:50:27;;;;;;;19.53;12.13;;;9.20;79.90;;;;;;10412169;28;20221;-75
2022/03/03 07:55:29;;;;;;;20.67;13.70;;;10.10;70.50;;;;;;10398673;28;20229;-74
2022/03/03 08:00:33;;;;;;;19.03;12.40;;;10.80;65.70;;;;;;10405762;28;20220;-75
2022/03/03 08:05:37;;;;;;;16.80;12.37;;;11.30;59.60;;;;;;10404139;28;20218;-74
2022/03/03 08:10:43;;;;;;;18.50;14.40;;;11.20;59.20;;;;;;10398256;28;20223;-75
2022/03/03 08:15:45;;;;;;;15.30;12.80;;;12.10;58.00;;;;;;10405539;28;20222;-74
2022/03/03 08:20:47;;;;;;;21.03;14.57;;;13.90;53.50;;;;;;10402826;28;20215;-75
2022/03/03 08:25:52;;;;;;;25.37;16.03;;;14.30;51.30;;;;;;10399060;28;20625;-75
2022/03/03 08:31:02;;;;;;;19.77;13.63;;;14.60;49.40;;;;;;10404943;28;20608;-74
2022/03/03 08:36:12;;;;;;;16.70;13.40;;;15.40;47.50;;;;;;10403615;28;20314;-75
2022/03/03 08:41:15;;;;;;;20.00;13.73;;;14.50;46.50;;;;;;10396131;28;20679;-75
2022/03/03 08:46:19;;;;;;;19.97;13.70;;;14.10;47.40;;;;;;10404766;28;20745;-75
2022/03/03 08:51:20;;;;;;;20.23;12.43;;;14.40;46.70;;;;;;10405964;28;20760;-75
2022/03/03 08:56:23;;;;;;;13.13;11.30;;;14.40;45.60;;;;;;10396926;28;20234;-75
2022/03/03 09:01:23;;;;;;;17.60;12.50;;;14.80;44.10;;;;;;10396008;28;20248;-76
2022/03/03 09:06:25;;;;;;;15.17;11.63;;;15.00;43.50;;;;;;10396892;28;20250;-76
2022/03/03 09:11:25;;;;;;;13.40;11.37;;;15.60;42.60;;;;;;10402615;28;20631;-74
2022/03/03 09:16:26;;;;;;;13.57;11.40;;;15.80;41.10;;;;;;10388167;28;20236;-77
2022/03/03 09:21:28;;;;;;;14.00;11.07;;;17.70;40.50;;;;;;10395490;28;20220;-76
2022/03/03 09:26:28;;;;;;;13.63;10.63;;;18.30;37.00;;;;;;10393216;28;20232;-75
2022/03/03 09:31:29;;;;;;;15.50;11.73;;;18.10;35.90;;;;;;10395641;28;20702;-75
2022/03/03 09:36:30;;;;;;;15.40;12.93;;;17.80;36.60;;;;;;10387958;28;20328;-75
2022/03/03 09:41:30;;;;;;;12.93;11.53;;;18.10;36.10;;;;;;10398322;28;20685;-75
2022/03/03 09:46:31;;;;;;;12.50;11.20;;;19.80;33.90;;;;;;10390632;28;20224;-75
2022/03/03 09:51:32;;;;;;;15.53;12.57;;;20.20;31.80;;;;;;10397878;28;20307;-75
2022/03/03 09:56:34;;;;;;;13.77;12.17;;;20.40;31.60;;;;;;10403671;28;20253;-75
2022/03/03 10:01:36;;;;;;;12.33;11.03;;;21.70;29.50;;;;;;10393755;28;20804;-76
2022/03/03 10:06:41;;;;;;;15.93;11.97;;;22.70;29.10;;;;;;10397162;28;20243;-75
2022/03/03 10:12:02;;;;;;;15.10;12.10;;;22.70;28.10;;;;;;10390967;28;20714;-75
2022/03/03 10:17:05;;;;;;;13.67;11.10;;;21.70;28.10;;;;;;10389484;28;20225;-75
2022/03/03 10:22:05;;;;;;;17.20;12.07;;;22.10;28.70;;;;;;10391484;28;20225;-76
2022/03/03 10:27:07;;;;;;;12.87;11.50;;;22.90;27.10;;;;;;10387090;28;20225;-75
2022/03/03 10:32:22;;;;;;;16.20;12.27;;;21.80;28.40;;;;;;10391525;28;20577;-75
2022/03/03 10:37:23;;;;;;;15.50;12.20;;;23.60;27.10;;;;;;10386181;28;20242;-76
2022/03/03 10:42:26;;;;;;;14.50;11.87;;;23.40;26.20;;;;;;10392918;28;20230;-75
2022/03/03 10:47:27;;;;;;;13.07;11.73;;;24.10;25.60;;;;;;10400443;28;20690;-76
2022/03/03 10:52:31;;;;;;;12.03;10.70;;;22.20;26.20;;;;;;10393356;28;20309;-76
2022/03/03 10:57:40;;;;;;;12.20;10.90;;;22.40;26.50;;;;;;10393338;28;20227;-75
2022/03/03 11:02:50;;;;;;;13.63;10.53;;;21.90;26.80;;;;;;10385315;28;20221;-75
2022/03/03 11:07:53;;;;;;;12.23;10.93;;;22.10;26.80;;;;;;10393247;28;20217;-75
2022/03/03 11:12:54;;;;;;;12.03;10.17;;;22.30;26.70;;;;;;10386484;28;20303;-76
2022/03/03 11:17:55;;;;;;;11.20;9.97;;;23.20;25.80;;;;;;10379943;28;20599;-75
2022/03/03 11:22:59;;;;;;;11.20;10.00;;;24.10;24.60;;;;;;10391865;28;20218;-75
2022/03/03 11:28:08;;;;;;;11.17;10.07;;;24.40;24.80;;;;;;10383766;28;20222;-76
2022/03/03 11:33:17;;;;;;;11.50;10.30;;;24.50;24.50;;;;;;10396973;28;20220;-75
2022/03/03 11:38:20;;;;;;;16.13;10.97;;;22.80;25.40;;;;;;10384109;28;20328;-75
2022/03/03 11:43:20;;;;;;;13.77;10.37;;;18.60;28.80;;;;;;10390842;28;20227;-76
2022/03/03 11:48:23;;;;;;;12.47;10.23;;;16.10;32.90;;;;;;10397720;28;20225;-76
2022/03/03 11:53:25;;;;;;;12.53;9.53;;;14.40;35.70;;;;;;10384492;28;20223;-75
2022/03/03 11:58:28;;;;;;;15.17;10.50;;;13.80;37.00;;;;;;10383744;28;20484;-75
2022/03/03 12:03:30;;;;;;;13.53;8.87;;;12.80;37.70;;;;;;10383438;28;20292;-75
2022/03/03 12:08:42;;;;;;;11.97;9.47;;;12.70;38.40;;;;;;10421862;28;20342;-76
2022/03/03 12:13:43;;;;;;;14.00;8.70;;;12.80;38.50;;;;;;10385120;28;20272;-74
2022/03/03 12:19:05;;;;;;;11.17;8.33;;;12.40;38.30;;;;;;10389774;28;20235;-74
2022/03/03 12:24:17;;;;;;;10.90;8.20;;;12.10;38.20;;;;;;10388144;28;20227;-75
2022/03/03 12:29:48;;;;;;;9.97;7.33;;;12.00;37.90;;;;;;10389689;28;20232;-75
2022/03/03 12:34:53;;;;;;;9.20;7.27;;;11.70;37.60;;;;;;10428106;28;20243;-76
2022/03/03 12:39:57;;;;;;;10.20;7.43;;;11.70;36.70;;;;;;10432842;28;20236;-75
2022/03/03 12:45:08;;;;;;;8.23;6.13;;;11.60;36.00;;;;;;10394802;28;20704;-75
2022/03/03 12:50:26;;;;;;;9.23;7.33;;;11.60;33.10;;;;;;10389138;28;20699;-74
2022/03/03 12:55:29;;;;;;;9.77;6.90;;;11.50;36.20;;;;;;10395925;28;20745;-75
2022/03/03 13:00:39;;;;;;;8.30;6.43;;;11.30;33.50;;;;;;10437869;28;20216;-74
2022/03/03 13:05:42;;;;;;;8.27;6.40;;;11.50;33.50;;;;;;10395425;28;20212;-75
2022/03/03 13:10:43;;;;;;;10.53;6.23;;;11.30;32.90;;;;;;10394288;28;20303;-75
2022/03/03 13:15:44;;;;;;;8.60;6.80;;;11.30;33.90;;;;;;10397584;28;20299;-74
2022/03/03 13:21:00;;;;;;;9.90;6.00;;;11.40;34.90;;;;;;10397329;28;20221;-75
2022/03/03 13:26:16;;;;;;;8.37;6.10;;;11.30;32.90;;;;;;10397278;28;20236;-75
2022/03/03 13:31:19;;;;;;;9.10;6.67;;;11.30;33.10;;;;;;10427689;28;20378;-74
2022/03/03 13:36:29;;;;;;;8.07;6.67;;;11.40;34.10;;;;;;10387910;28;20230;-74
2022/03/03 13:41:34;;;;;;;9.87;7.30;;;11.20;34.70;;;;;;10395659;28;20334;-74
2022/03/03 13:46:35;;;;;;;9.23;6.00;;;11.30;36.60;;;;;;10421237;28;20595;-75
2022/03/03 13:51:36;;;;;;;8.77;6.80;;;11.50;35.60;;;;;;10398004;28;20217;-75
2022/03/03 13:56:36;;;;;;;7.97;6.50;;;11.60;36.20;;;;;;10387218;28;20229;-74
2022/03/03 14:01:38;;;;;;;11.00;7.63;;;11.60;36.90;;;;;;10387152;28;20709;-74
2022/03/03 14:06:41;;;;;;;10.90;7.70;;;11.60;38.00;;;;;;10392891;28;20231;-75
2022/03/03 14:11:42;;;;;;;11.97;8.40;;;11.70;38.70;;;;;;10420970;28;20262;-75
2022/03/03 14:16:42;;;;;;;11.57;8.30;;;11.60;39.40;;;;;;10392892;28;20806;-75
2022/03/03 14:21:43;;;;;;;13.17;8.40;;;11.70;39.40;;;;;;10388649;28;20229;-75
2022/03/03 14:26:43;;;;;;;11.20;7.80;;;11.80;39.90;;;;;;10394670;28;20228;-75
2022/03/03 14:31:44;;;;;;;10.83;7.97;;;11.70;39.10;;;;;;10392957;28;20693;-75
2022/03/03 14:36:45;;;;;;;8.97;7.13;;;11.70;40.00;;;;;;10392050;28;20613;-74
2022/03/03 14:41:45;;;;;;;11.53;8.03;;;11.70;39.20;;;;;;10388564;28;20228;-75
2022/03/03 14:46:46;;;;;;;11.70;8.30;;;11.60;38.80;;;;;;10398694;28;20216;-75
2022/03/03 14:51:47;;;;;;;9.40;7.50;;;11.70;39.80;;;;;;10398414;28;20224;-75
2022/03/03 14:56:47;;;;;;;11.23;7.47;;;11.70;40.50;;;;;;10419673;28;20232;-75
2022/03/03 15:01:48;;;;;;;10.10;6.97;;;11.70;39.70;;;;;;10387776;28;20585;-75
2022/03/03 15:06:49;;;;;;;10.67;7.77;;;11.70;39.60;;;;;;10397569;28;20259;-76
2022/03/03 15:11:51;;;;;;;11.97;7.90;;;11.60;39.40;;;;;;10388332;28;20287;-76
2022/03/03 15:16:52;;;;;;;11.17;7.80;;;11.50;40.10;;;;;;10387011;28;20240;-75
2022/03/03 15:21:53;;;;;;;8.20;6.50;;;11.40;40.00;;;;;;10384990;28;20367;-75
2022/03/03 15:26:53;;;;;;;9.37;7.10;;;11.30;38.90;;;;;;10399073;28;20251;-74
2022/03/03 15:31:54;;;;;;;11.00;7.73;;;11.20;39.50;;;;;;10401603;28;20292;-75
2022/03/03 15:36:57;;;;;;;9.13;6.77;;;11.20;39.40;;;;;;10392250;28;20637;-75
2022/03/03 15:42:00;;;;;;;9.50;7.10;;;11.10;38.90;;;;;;10386046;28;20223;-74
2022/03/03 15:47:00;;;;;;;9.70;7.00;;;11.00;38.70;;;;;;10391916;28;20221;-75
2022/03/03 15:52:02;;;;;;;10.50;6.23;;;10.90;39.20;;;;;;10388167;28;20591;-75
2022/03/03 15:57:04;;;;;;;10.47;7.27;;;10.80;39.50;;;;;;10423137;28;20307;-75
2022/03/03 16:02:05;;;;;;;11.23;6.93;;;10.70;39.90;;;;;;10424978;28;20222;-76
2022/03/03 16:07:05;;;;;;;7.53;6.47;;;10.60;40.40;;;;;;10392485;28;20225;-76
2022/03/03 16:12:07;;;;;;;10.00;6.93;;;10.50;40.50;;;;;;10395012;28;20261;-74
2022/03/03 16:17:07;;;;;;;12.30;6.77;;;10.40;40.80;;;;;;10391148;28;20326;-75
2022/03/03 16:22:08;;;;;;;12.47;8.30;;;10.30;41.00;;;;;;10392981;28;20362;-74
2022/03/03 16:27:08;;;;;;;12.07;8.70;;;10.30;43.40;;;;;;10398281;28;20232;-74
2022/03/03 16:32:17;;;;;;;14.63;8.97;;;10.20;45.20;;;;;;10390175;28;20685;-74
2022/03/03 16:37:21;;;;;;;12.10;8.87;;;10.10;46.70;;;;;;10396851;28;20247;-74
2022/03/03 16:42:22;;;;;;;10.63;8.63;;;9.90;46.70;;;;;;10390646;28;20232;-75
2022/03/03 16:47:23;;;;;;;13.33;8.30;;;9.80;47.30;;;;;;10395768;28;20753;-75
2022/03/03 16:52:23;;;;;;;14.60;8.40;;;9.70;48.30;;;;;;10405007;28;20251;-76
2022/03/03 16:57:25;;;;;;;11.20;8.53;;;9.60;47.80;;;;;;10420782;28;20670;-74
2022/03/03 17:02:26;;;;;;;12.03;8.97;;;9.40;48.00;;;;;;10428575;28;20228;-75
2022/03/03 17:07:26;;;;;;;13.60;9.20;;;9.20;48.90;;;;;;10420437;28;20594;-75
2022/03/03 17:12:28;;;;;;;14.20;9.30;;;9.10;50.00;;;;;;10427672;28;20734;-75
2022/03/03 17:17:28;;;;;;;13.97;10.40;;;9.00;50.60;;;;;;10428551;28;20224;-74
2022/03/03 17:22:29;;;;;;;14.60;10.10;;;8.80;51.20;;;;;;10396928;28;20659;-74
2022/03/03 17:27:29;;;;;;;12.37;9.33;;;8.70;51.70;;;;;;10387416;28;20263;-75
2022/03/03 17:32:30;;;;;;;11.97;8.73;;;8.50;52.40;;;;;;10399052;28;20240;-74
2022/03/03 17:37:32;;;;;;;12.30;9.20;;;8.20;52.80;;;;;;10395408;28;20232;-75
2022/03/03 17:42:32;;;;;;;13.13;9.57;;;8.00;53.80;;;;;;10388159;28;20807;-75
2022/03/03 17:47:33;;;;;;;13.03;9.43;;;7.70;56.10;;;;;;10395850;28;20273;-76
2022/03/03 17:52:33;;;;;;;13.37;10.03;;;7.50;57.30;;;;;;10386344;28;20216;-76
2022/03/03 17:57:37;;;;;;;11.67;9.30;;;7.30;58.00;;;;;;10386778;28;20221;-75
2022/03/03 18:02:38;;;;;;;14.67;10.10;;;7.10;58.50;;;;;;10434500;28;20221;-75
2022/03/03 18:07:39;;;;;;;14.17;10.07;;;7.00;59.10;;;;;;10393115;28;20760;-75
2022/03/03 18:12:40;;;;;;;15.87;11.00;;;6.90;58.80;;;;;;10388543;28;20224;-76
2022/03/03 18:17:41;;;;;;;16.80;11.37;;;6.80;58.90;;;;;;10387189;28;20339;-76
2022/03/03 18:22:41;;;;;;;18.73;12.33;;;6.90;58.70;;;;;;10387537;28;20264;-76
2022/03/03 18:27:42;;;;;;;16.67;11.40;;;7.00;58.30;;;;;;10397067;28;20212;-76
2022/03/03 18:32:43;;;;;;;16.17;11.37;;;7.10;57.70;;;;;;10393018;28;20252;-75
2022/03/03 18:37:43;;;;;;;16.80;10.73;;;7.30;57.80;;;;;;10393128;28;20231;-74
2022/03/03 18:42:44;;;;;;;16.30;10.90;;;7.30;57.90;;;;;;10388599;28;20688;-75
2022/03/03 18:47:45;;;;;;;19.20;11.23;;;7.30;58.30;;;;;;10386805;28;20229;-74
2022/03/03 18:52:45;;;;;;;15.07;10.00;;;7.20;58.80;;;;;;10399448;28;20220;-76
2022/03/03 18:57:46;;;;;;;13.17;9.83;;;7.20;59.20;;;;;;10384550;28;20327;-75
2022/03/03 19:02:47;;;;;;;15.70;10.33;;;7.10;59.70;;;;;;10387194;28;20680;-75
2022/03/03 19:07:47;;;;;;;14.03;10.23;;;7.00;60.00;;;;;;10389891;28;20221;-75
2022/03/03 19:12:48;;;;;;;14.20;9.53;;;7.00;60.70;;;;;;10383471;28;20466;-73
2022/03/03 19:17:49;;;;;;;13.57;9.77;;;7.00;61.10;;;;;;10388998;28;20222;-74
2022/03/03 19:22:50;;;;;;;12.67;9.73;;;6.90;62.10;;;;;;10393424;28;20213;-74
2022/03/03 19:27:51;;;;;;;13.60;9.40;;;6.70;62.30;;;;;;10385073;28;20221;-74
2022/03/03 19:38:10;;;;;;;14.43;9.70;;;6.60;63.50;;;;;;10385625;28;20232;-74
2022/03/03 19:43:12;;;;;;;13.77;9.60;;;6.50;64.00;;;;;;10390188;28;20216;-74
2022/03/03 19:48:13;;;;;;;14.50;9.07;;;6.40;64.20;;;;;;10385928;28;20221;-74
2022/03/03 19:53:13;;;;;;;12.50;8.73;;;6.40;64.70;;;;;;10389628;28;20214;-76
2022/03/03 19:58:15;;;;;;;14.47;10.23;;;6.30;65.40;;;;;;10386966;28;20582;-75
2022/03/03 20:03:16;;;;;;;17.90;10.10;;;6.20;65.60;;;;;;10385201;28;20267;-76
2022/03/03 20:08:17;;;;;;;15.53;10.10;;;6.10;66.30;;;;;;10390649;28;20230;-74
2022/03/03 20:13:17;;;;;;;17.10;10.93;;;6.00;66.60;;;;;;10383743;28;20240;-74
2022/03/03 20:18:19;;;;;;;17.07;10.83;;;6.00;67.20;;;;;;10392280;28;20648;-75
2022/03/03 20:23:20;;;;;;;18.70;10.60;;;6.00;67.30;;;;;;10392022;28;20216;-74
2022/03/03 20:28:21;;;;;;;16.73;11.10;;;5.90;67.60;;;;;;10399069;28;20593;-76
2022/03/03 20:33:21;;;;;;;15.90;10.33;;;5.90;68.30;;;;;;10392804;28;20684;-75
2022/03/03 20:38:26;;;;;;;16.73;11.73;;;5.80;68.30;;;;;;10388591;28;20260;-76
2022/03/03 20:43:29;;;;;;;17.70;11.17;;;5.80;68.60;;;;;;10390623;28;20219;-77
2022/03/03 20:48:30;;;;;;;21.20;11.80;;;5.70;69.20;;;;;;10384231;28;20249;-76
2022/03/03 20:53:31;;;;;;;17.47;12.17;;;5.60;69.80;;;;;;10398096;28;20704;-76
2022/03/03 20:58:31;;;;;;;14.13;10.37;;;5.50;70.10;;;;;;10399405;28;20622;-74
2022/03/03 21:03:32;;;;;;;14.83;10.70;;;5.40;70.50;;;;;;10400437;28;20279;-75
2022/03/03 21:08:33;;;;;;;17.37;12.10;;;5.30;70.80;;;;;;10391864;28;20739;-76
2022/03/03 21:13:34;;;;;;;16.40;11.07;;;5.20;71.20;;;;;;10399084;28;20220;-76
2022/03/03 21:18:34;;;;;;;17.03;11.10;;;5.20;71.90;;;;;;10389723;28;20386;-75
2022/03/03 21:23:36;;;;;;;22.43;14.20;;;5.10;72.60;;;;;;10400802;28;20295;-75
2022/03/03 21:28:39;;;;;;;17.90;10.80;;;5.00;73.20;;;;;;10413874;28;20209;-76
2022/03/03 21:33:41;;;;;;;18.40;11.60;;;4.90;73.40;;;;;;10411237;28;20220;-77
2022/03/03 21:38:41;;;;;;;20.17;12.73;;;4.80;73.60;;;;;;10412451;28;20250;-77
2022/03/03 21:43:42;;;;;;;19.67;12.77;;;4.80;74.20;;;;;;10388420;28;20217;-77
2022/03/03 21:48:46;;;;;;;21.70;12.87;;;4.70;74.50;;;;;;10387492;28;20221;-75
2022/03/03 21:53:46;;;;;;;16.43;11.30;;;4.70;74.80;;;;;;10391528;28;20306;-75
2022/03/03 21:58:47;;;;;;;18.90;11.80;;;4.60;75.00;;;;;;10387866;28;20290;-75
2022/03/03 22:03:48;;;;;;;16.17;10.43;;;4.50;75.00;;;;;;10391959;28;20590;-76
2022/03/03 22:08:49;;;;;;;16.53;11.23;;;4.50;75.00;;;;;;10389587;28;20807;-76
2022/03/03 22:13:50;;;;;;;16.73;11.13;;;4.40;75.10;;;;;;10398795;28;20225;-75
2022/03/03 22:18:51;;;;;;;16.53;9.90;;;4.40;74.90;;;;;;10382698;28;20228;-75
2022/03/03 22:23:52;;;;;;;15.13;10.17;;;4.40;75.10;;;;;;10394396;28;20253;-76
2022/03/03 22:28:53;;;;;;;17.20;10.63;;;4.40;75.20;;;;;;10390752;28;20580;-76
2022/03/03 22:33:54;;;;;;;18.10;10.27;;;4.30;75.60;;;;;;10389953;28;20225;-75
2022/03/03 22:38:54;;;;;;;17.40;11.10;;;4.30;75.60;;;;;;10389809;28;20228;-75
2022/03/03 22:43:55;;;;;;;17.50;10.10;;;4.30;75.80;;;;;;10393092;28;20910;-76
2022/03/03 22:48:59;;;;;;;14.53;10.50;;;4.20;75.60;;;;;;10379796;28;20316;-75
2022/03/03 22:54:00;;;;;;;16.27;10.50;;;4.20;76.00;;;;;;10385793;28;20770;-74
2022/03/03 22:59:01;;;;;;;15.80;10.47;;;4.10;76.10;;;;;;10385822;28;20229;-77
2022/03/03 23:09:23;;;;;;;13.17;9.63;;;4.00;76.50;;;;;;10403164;28;20220;-77
2022/03/03 23:14:24;;;;;;;16.27;10.27;;;4.00;76.80;;;;;;10408476;28;20213;-77
2022/03/03 23:19:26;;;;;;;17.20;10.50;;;3.90;77.40;;;;;;10408553;28;20575;-76
2022/03/03 23:24:27;;;;;;;16.90;10.10;;;3.90;77.50;;;;;;10408581;28;20209;-76
2022/03/03 23:29:28;;;;;;;15.13;10.17;;;3.80;77.80;;;;;;10393691;28;20596;-77
2022/03/03 23:34:32;;;;;;;23.73;11.80;;;3.70;78.60;;;;;;10401118;28;20251;-77
2022/03/03 23:39:33;;;;;;;18.77;11.57;;;3.60;79.90;;;;;;10395144;28;20229;-77
2022/03/03 23:44:34;;;;;;;19.27;12.20;;;3.50;80.90;;;;;;10393109;28;20596;-77
2022/03/03 23:49:34;;;;;;;17.83;12.33;;;3.30;82.30;;;;;;10379428;28;20217;-77
2022/03/03 23:54:35;;;;;;;19.60;12.33;;;3.20;83.30;;;;;;10393692;28;20220;-76
2022/03/03 23:59:36;;;;;;;19.53;11.37;;;3.10;84.30;;;;;;10387657;28;20235;-76
